createdAt,value
2023-03-25T00:00:15.179Z,0.10
2023-03-25T00:02:24.478Z,0.10
2023-03-25T00:04:35.465Z,0.00
2023-03-25T00:06:44.267Z,0.10
2023-03-25T00:08:52.803Z,0.10
2023-03-25T00:11:05.184Z,0.10
2023-03-25T00:13:13.799Z,0.10
2023-03-25T00:15:22.380Z,0.10
2023-03-25T00:17:31.212Z,0.13
2023-03-25T00:19:41.521Z,0.10
2023-03-25T00:21:52.406Z,0.10
2023-03-25T00:24:00.750Z,0.10
2023-03-25T00:26:11.157Z,0.10
2023-03-25T00:28:19.697Z,0.10
2023-03-25T00:30:28.321Z,0.10
2023-03-25T00:32:37.046Z,0.10
2023-03-25T00:34:47.697Z,0.10
2023-03-25T00:36:56.842Z,0.10
2023-03-25T00:39:06.632Z,0.10
2023-03-25T00:41:23.349Z,0.10
2023-03-25T00:43:32.298Z,0.10
2023-03-25T00:45:40.950Z,0.10
2023-03-25T00:47:49.550Z,0.03
2023-03-25T00:49:57.964Z,0.10
2023-03-25T00:52:06.906Z,0.10
2023-03-25T00:54:17.057Z,0.10
2023-03-25T00:56:27.488Z,0.10
2023-03-25T00:58:36.090Z,0.10
2023-03-25T01:00:44.507Z,0.00
2023-03-25T01:02:54.820Z,0.20
2023-03-25T01:05:04.812Z,0.10
2023-03-25T01:07:16.667Z,0.13
2023-03-25T01:09:26.332Z,0.10
2023-03-25T01:11:38.406Z,0.30
2023-03-25T01:13:47.122Z,0.20
2023-03-25T01:15:55.769Z,0.20
2023-03-25T01:18:04.615Z,0.23
2023-03-25T01:20:13.664Z,0.20
2023-03-25T01:22:22.515Z,0.30
2023-03-25T01:24:31.535Z,0.20
2023-03-25T01:26:43.637Z,0.20
2023-03-25T01:28:54.110Z,0.40
2023-03-25T01:31:03.196Z,0.30
2023-03-25T01:33:12.443Z,0.50
2023-03-25T01:35:20.877Z,0.30
2023-03-25T01:37:30.075Z,0.30
2023-03-25T01:39:39.061Z,0.50
2023-03-25T01:41:51.305Z,0.43
2023-03-25T01:44:04.313Z,0.50
2023-03-25T01:46:16.247Z,0.40
2023-03-25T01:48:27.739Z,0.77
2023-03-25T01:50:37.669Z,0.33
2023-03-25T01:52:48.302Z,0.40
2023-03-25T01:54:59.012Z,0.33
2023-03-25T01:57:11.451Z,0.63
2023-03-25T01:59:25.796Z,0.60
2023-03-25T02:01:36.904Z,0.53
2023-03-25T02:03:51.122Z,1.07
2023-03-25T02:06:04.400Z,0.40
2023-03-25T02:08:16.350Z,0.80
2023-03-25T02:10:25.242Z,0.60
2023-03-25T02:12:35.902Z,0.60
2023-03-25T02:14:44.338Z,0.50
2023-03-25T02:16:58.586Z,0.60
2023-03-25T02:19:18.353Z,0.50
2023-03-25T02:22:04.619Z,0.70
2023-03-25T02:24:43.817Z,0.70
2023-03-25T02:27:27.797Z,0.53
2023-03-25T02:29:49.588Z,0.50
2023-03-25T02:32:10.985Z,0.77
2023-03-25T02:34:39.608Z,0.73
2023-03-25T02:37:02.405Z,0.80
2023-03-25T02:39:16.587Z,1.00
2023-03-25T02:41:27.860Z,0.70
2023-03-25T02:43:40.405Z,0.83
2023-03-25T02:45:51.258Z,0.70
2023-03-25T02:48:02.421Z,0.87
2023-03-25T02:50:13.844Z,1.00
2023-03-25T02:52:26.883Z,0.90
2023-03-25T02:54:39.381Z,1.00
2023-03-25T02:56:49.383Z,0.70
2023-03-25T02:58:59.156Z,0.97
2023-03-25T03:01:10.323Z,1.33
2023-03-25T03:03:19.258Z,0.63
2023-03-25T03:05:29.687Z,1.10
2023-03-25T03:07:43.032Z,1.07
2023-03-25T03:09:59.351Z,1.03
2023-03-25T03:12:28.898Z,1.17
2023-03-25T03:14:50.037Z,0.63
2023-03-25T03:17:08.433Z,1.10
2023-03-25T03:19:34.471Z,0.80
2023-03-25T03:21:52.733Z,0.80
2023-03-25T03:24:08.960Z,1.03
2023-03-25T03:26:28.193Z,0.80
2023-03-25T03:28:45.967Z,1.60
2023-03-25T03:31:00.152Z,1.20
2023-03-25T03:33:17.576Z,1.17
2023-03-25T03:35:30.323Z,1.17
2023-03-25T03:37:43.038Z,1.50
2023-03-25T03:39:54.137Z,1.10
2023-03-25T03:42:11.019Z,1.30
2023-03-25T03:44:21.993Z,1.30
2023-03-25T03:46:34.052Z,1.40
2023-03-25T03:48:46.472Z,1.17
2023-03-25T03:50:58.778Z,1.20
2023-03-25T03:53:11.310Z,1.20
2023-03-25T03:55:25.353Z,1.33
2023-03-25T03:57:40.980Z,1.30
2023-03-25T03:59:59.453Z,1.27
2023-03-25T04:02:15.091Z,1.20
2023-03-25T04:04:27.528Z,1.40
2023-03-25T04:06:42.317Z,1.40
2023-03-25T04:08:59.409Z,1.40
2023-03-25T04:11:11.822Z,1.33
2023-03-25T04:13:24.342Z,1.20
2023-03-25T04:15:33.354Z,1.40
2023-03-25T04:17:43.198Z,1.30
2023-03-25T04:19:53.751Z,1.63
2023-03-25T04:22:03.773Z,1.60
2023-03-25T04:24:12.102Z,1.70
2023-03-25T04:26:21.915Z,1.43
2023-03-25T04:28:33.051Z,1.73
2023-03-25T04:30:42.582Z,1.70
2023-03-25T04:32:52.066Z,1.80
2023-03-25T04:35:00.819Z,1.93
2023-03-25T04:37:09.522Z,1.60
2023-03-25T04:39:22.890Z,1.60
2023-03-25T04:41:32.204Z,1.50
2023-03-25T04:43:45.344Z,1.93
2023-03-25T04:45:55.737Z,1.80
2023-03-25T04:48:06.135Z,1.80
2023-03-25T04:50:22.404Z,1.93
2023-03-25T04:52:31.226Z,1.57
2023-03-25T04:54:40.391Z,1.90
2023-03-25T04:56:51.339Z,1.90
2023-03-25T04:59:01.667Z,1.23
2023-03-25T05:01:18.110Z,2.70
2023-03-25T05:03:27.280Z,1.90
2023-03-25T05:05:35.760Z,2.07
2023-03-25T05:07:46.504Z,2.00
2023-03-25T05:09:55.014Z,2.03
2023-03-25T05:12:03.332Z,2.13
2023-03-25T05:14:15.234Z,1.77
2023-03-25T05:16:24.508Z,1.90
2023-03-25T05:18:33.291Z,1.80
2023-03-25T05:20:43.883Z,1.87
2023-03-25T05:22:53.950Z,1.93
2023-03-25T05:25:04.436Z,2.20
2023-03-25T05:27:13.236Z,1.70
2023-03-25T05:29:23.492Z,2.07
2023-03-25T05:31:32.756Z,1.93
2023-03-25T05:33:42.934Z,1.63
2023-03-25T05:35:52.519Z,1.70
2023-03-25T05:38:02.009Z,1.90
2023-03-25T05:40:15.059Z,2.20
2023-03-25T05:42:24.387Z,1.90
2023-03-25T05:44:35.152Z,1.90
2023-03-25T05:46:44.227Z,1.80
2023-03-25T05:48:52.755Z,1.90
2023-03-25T05:51:03.109Z,1.70
2023-03-25T05:53:13.772Z,2.60
2023-03-25T05:55:24.694Z,1.90
2023-03-25T05:57:33.463Z,1.80
2023-03-25T05:59:43.589Z,1.73
2023-03-25T06:01:52.329Z,1.67
2023-03-25T06:04:03.260Z,1.80
2023-03-25T06:06:14.155Z,1.90
2023-03-25T06:08:26.381Z,1.60
2023-03-25T06:10:35.133Z,1.90
2023-03-25T06:12:44.094Z,1.70
2023-03-25T06:14:54.595Z,1.90
2023-03-25T06:17:02.954Z,1.70
2023-03-25T06:19:11.856Z,2.03
2023-03-25T06:21:21.068Z,1.97
2023-03-25T06:23:29.937Z,2.13
2023-03-25T06:25:38.747Z,1.70
2023-03-25T06:27:48.657Z,1.87
2023-03-25T06:29:58.531Z,2.00
2023-03-25T06:32:07.910Z,1.97
2023-03-25T06:34:16.538Z,1.93
2023-03-25T06:36:25.801Z,1.70
2023-03-25T06:38:35.130Z,1.70
2023-03-25T06:40:43.963Z,1.90
2023-03-25T06:42:52.334Z,1.63
2023-03-25T06:45:05.280Z,1.53
2023-03-25T06:47:13.970Z,2.00
2023-03-25T06:49:22.828Z,1.73
2023-03-25T06:51:31.558Z,2.07
2023-03-25T06:53:40.595Z,2.10
2023-03-25T06:55:49.869Z,1.87
2023-03-25T06:57:58.737Z,1.60
2023-03-25T07:00:12.972Z,1.97
2023-03-25T07:02:21.347Z,1.87
2023-03-25T07:04:29.984Z,1.67
2023-03-25T07:06:38.650Z,2.27
2023-03-25T07:08:47.776Z,1.60
2023-03-25T07:11:01.730Z,1.80
2023-03-25T07:13:11.852Z,1.90
2023-03-25T07:15:22.702Z,1.87
2023-03-25T07:17:31.515Z,1.90
2023-03-25T07:19:39.927Z,2.07
2023-03-25T07:21:48.252Z,2.13
2023-03-25T07:23:56.685Z,2.07
2023-03-25T07:26:05.104Z,1.77
2023-03-25T07:28:14.032Z,1.53
2023-03-25T07:30:24.597Z,1.60
2023-03-25T07:32:33.552Z,1.67
2023-03-25T07:34:42.256Z,1.77
2023-03-25T07:36:51.116Z,1.40
2023-03-25T07:39:01.024Z,1.77
2023-03-25T07:41:11.069Z,1.70
2023-03-25T07:43:20.386Z,1.70
2023-03-25T07:45:31.087Z,1.50
2023-03-25T07:47:53.443Z,1.60
2023-03-25T07:50:02.635Z,1.80
2023-03-25T07:52:11.557Z,1.77
2023-03-25T07:54:22.338Z,1.50
2023-03-25T07:56:31.241Z,1.40
2023-03-25T07:58:40.084Z,1.50
2023-03-25T08:00:50.323Z,1.50
2023-03-25T08:02:59.197Z,1.20
2023-03-25T08:05:08.376Z,1.73
2023-03-25T08:07:17.557Z,1.70
2023-03-25T08:09:26.273Z,1.93
2023-03-25T08:11:35.265Z,1.73
2023-03-25T08:13:44.226Z,2.10
2023-03-25T08:15:54.594Z,1.90
2023-03-25T08:18:04.388Z,1.60
2023-03-25T08:20:13.510Z,1.60
2023-03-25T08:22:22.301Z,1.67
2023-03-25T08:24:32.796Z,2.33
2023-03-25T08:26:41.381Z,1.60
2023-03-25T08:28:50.323Z,1.57
2023-03-25T08:31:02.517Z,1.50
2023-03-25T08:33:12.068Z,1.60
2023-03-25T08:35:21.629Z,1.60
2023-03-25T08:37:31.057Z,1.80
2023-03-25T08:39:42.386Z,1.50
2023-03-25T08:41:51.017Z,1.47
2023-03-25T08:43:59.273Z,1.43
2023-03-25T08:46:09.954Z,1.70
2023-03-25T08:48:18.529Z,1.50
2023-03-25T08:50:27.302Z,1.90
2023-03-25T08:52:35.672Z,1.60
2023-03-25T08:54:44.399Z,1.70
2023-03-25T08:56:53.180Z,1.73
2023-03-25T08:59:01.548Z,1.90
2023-03-25T09:01:12.646Z,2.03
2023-03-25T09:03:21.908Z,1.80
2023-03-25T09:05:31.205Z,1.73
2023-03-25T09:07:40.386Z,1.77
2023-03-25T09:09:48.799Z,1.60
2023-03-25T09:11:57.428Z,2.00
2023-03-25T09:14:06.403Z,1.90
2023-03-25T09:16:16.804Z,1.77
2023-03-25T09:18:25.354Z,2.03
2023-03-25T09:20:34.784Z,2.10
2023-03-25T09:22:44.111Z,1.70
2023-03-25T09:24:52.678Z,1.60
2023-03-25T09:27:01.619Z,2.20
2023-03-25T09:29:10.715Z,1.70
2023-03-25T09:31:21.014Z,1.77
2023-03-25T09:33:29.954Z,2.17
2023-03-25T09:35:38.425Z,2.30
2023-03-25T09:37:51.790Z,2.00
2023-03-25T09:40:00.520Z,2.10
2023-03-25T09:42:31.279Z,1.97
2023-03-25T09:44:48.209Z,2.07
2023-03-25T09:47:00.757Z,2.40
2023-03-25T09:49:15.837Z,2.10
2023-03-25T09:51:29.867Z,2.10
2023-03-25T09:53:46.531Z,2.10
2023-03-25T09:55:56.519Z,2.37
2023-03-25T09:58:20.950Z,1.90
2023-03-25T10:00:30.768Z,2.20
2023-03-25T10:02:45.759Z,2.00
2023-03-25T10:05:06.641Z,1.80
2023-03-25T10:07:32.408Z,2.10
2023-03-25T10:09:52.190Z,1.87
2023-03-25T10:12:07.282Z,1.90
2023-03-25T10:14:22.814Z,2.10
2023-03-25T10:16:40.800Z,2.40
2023-03-25T10:19:08.740Z,2.10
2023-03-25T10:21:25.373Z,2.40
2023-03-25T10:23:41.405Z,2.23
2023-03-25T10:25:54.749Z,2.03
2023-03-25T10:28:04.412Z,2.20
2023-03-25T10:30:17.711Z,2.67
2023-03-25T10:32:34.500Z,2.80
2023-03-25T10:34:50.681Z,2.30
2023-03-25T10:37:05.334Z,2.93
2023-03-25T10:39:19.241Z,2.87
2023-03-25T10:41:31.738Z,2.63
2023-03-25T10:43:42.744Z,2.83
2023-03-25T10:45:54.685Z,2.83
2023-03-25T10:48:10.953Z,3.40
2023-03-25T10:50:23.093Z,2.90
2023-03-25T10:52:32.131Z,2.70
2023-03-25T10:54:44.093Z,2.70
2023-03-25T10:56:55.179Z,2.60
2023-03-25T10:59:14.243Z,2.87
2023-03-25T11:01:30.203Z,2.70
2023-03-25T11:03:40.720Z,2.70
2023-03-25T11:05:51.263Z,3.30
2023-03-25T11:08:18.149Z,2.80
2023-03-25T11:10:34.359Z,2.50
2023-03-25T11:12:46.327Z,2.97
2023-03-25T11:14:58.290Z,2.90
2023-03-25T11:17:12.939Z,2.97
2023-03-25T11:19:25.528Z,2.57
2023-03-25T11:21:37.227Z,2.47
2023-03-25T11:23:47.923Z,2.10
2023-03-25T11:25:58.028Z,2.53
2023-03-25T11:28:13.921Z,2.00
2023-03-25T11:30:24.094Z,2.03
2023-03-25T11:32:37.962Z,1.50
2023-03-25T11:34:51.250Z,1.13
2023-03-25T11:37:04.751Z,2.13
2023-03-25T11:39:18.732Z,1.93
2023-03-25T11:41:30.233Z,2.00
2023-03-25T11:43:39.876Z,1.43
2023-03-25T11:45:49.972Z,2.20
2023-03-25T11:48:00.546Z,2.00
2023-03-25T11:50:09.901Z,2.00
2023-03-25T11:52:23.332Z,2.17
2023-03-25T11:54:32.140Z,2.13
2023-03-25T11:56:42.047Z,2.10
2023-03-25T11:58:52.129Z,2.00
2023-03-25T12:01:04.098Z,1.90
2023-03-25T12:03:20.513Z,1.70
2023-03-25T12:05:29.927Z,1.90
2023-03-25T12:07:44.369Z,1.80
2023-03-25T12:09:56.403Z,1.90
2023-03-25T12:12:16.628Z,1.93
2023-03-25T12:14:32.692Z,2.00
2023-03-25T12:16:45.621Z,2.00
2023-03-25T12:19:01.550Z,2.00
2023-03-25T12:21:15.643Z,1.93
2023-03-25T12:23:34.661Z,2.53
2023-03-25T12:25:55.296Z,2.10
2023-03-25T12:28:41.761Z,3.00
2023-03-25T12:30:59.558Z,3.30
2023-03-25T12:33:22.679Z,2.50
2023-03-25T12:35:41.335Z,2.40
2023-03-25T12:38:16.995Z,2.60
2023-03-25T12:40:41.040Z,2.40
2023-03-25T12:43:00.323Z,2.30
2023-03-25T12:45:28.483Z,2.20
2023-03-25T12:47:41.124Z,2.43
2023-03-25T12:50:15.679Z,2.67
2023-03-25T12:52:36.592Z,2.27
2023-03-25T12:54:57.845Z,2.37
2023-03-25T12:57:21.932Z,2.70
2023-03-25T12:59:51.829Z,2.10
2023-03-25T13:02:11.684Z,2.27
2023-03-25T13:04:36.280Z,2.53
2023-03-25T13:06:55.010Z,2.50
2023-03-25T13:09:08.445Z,2.27
2023-03-25T13:11:22.754Z,2.47
2023-03-25T13:13:34.695Z,2.60
2023-03-25T13:15:46.555Z,2.50
2023-03-25T13:17:58.964Z,2.60
2023-03-25T13:20:11.299Z,2.43
2023-03-25T13:22:24.844Z,2.20
2023-03-25T13:24:41.082Z,2.07
2023-03-25T13:26:51.809Z,2.23
2023-03-25T13:29:04.010Z,2.40
2023-03-25T13:31:20.874Z,1.97
2023-03-25T13:33:33.193Z,2.50
2023-03-25T13:35:46.824Z,2.10
2023-03-25T13:38:00.041Z,2.20
2023-03-25T13:40:25.158Z,2.37
2023-03-25T13:42:41.111Z,2.20
2023-03-25T13:44:55.609Z,2.60
2023-03-25T13:47:14.651Z,2.57
2023-03-25T13:49:29.353Z,2.30
2023-03-25T13:51:38.253Z,2.70
2023-03-25T13:53:52.284Z,2.37
2023-03-25T13:56:27.310Z,2.10
2023-03-25T13:59:00.076Z,2.50
2023-03-25T14:01:29.920Z,2.20
2023-03-25T14:04:06.713Z,2.00
2023-03-25T14:06:52.347Z,2.47
2023-03-25T14:09:38.764Z,2.40
2023-03-25T14:11:50.502Z,2.30
2023-03-25T14:14:02.431Z,2.13
2023-03-25T14:16:13.988Z,2.37
2023-03-25T14:18:24.778Z,2.30
2023-03-25T14:20:39.079Z,2.40
2023-03-25T14:22:48.795Z,2.90
2023-03-25T14:24:58.322Z,2.40
2023-03-25T14:27:09.887Z,2.43
2023-03-25T14:29:30.977Z,2.50
2023-03-25T14:31:39.734Z,2.30
2023-03-25T14:34:28.046Z,2.20
2023-03-25T14:37:09.937Z,2.50
2023-03-25T14:39:40.217Z,2.63
2023-03-25T14:42:00.748Z,2.67
2023-03-25T14:44:19.885Z,2.43
2023-03-25T14:46:36.892Z,2.63
2023-03-25T14:48:46.702Z,2.50
2023-03-25T14:51:22.799Z,2.80
2023-03-25T14:53:32.373Z,2.57
2023-03-25T14:55:45.819Z,2.70
2023-03-25T14:57:59.641Z,2.97
2023-03-25T15:00:14.340Z,3.20
2023-03-25T15:02:28.405Z,2.50
2023-03-25T15:04:39.512Z,2.60
2023-03-25T15:06:50.597Z,3.03
2023-03-25T15:09:01.219Z,2.83
2023-03-25T15:11:12.246Z,2.77
2023-03-25T15:13:25.502Z,2.50
2023-03-25T15:15:54.209Z,2.23
2023-03-25T15:18:03.043Z,2.20
2023-03-25T15:20:40.242Z,2.27
2023-03-25T15:23:43.583Z,2.70
2023-03-25T15:25:55.100Z,2.73
2023-03-25T15:28:13.713Z,2.77
2023-03-25T15:30:56.412Z,2.37
2023-03-25T15:33:19.089Z,2.00
2023-03-25T15:35:54.070Z,1.73
2023-03-25T15:38:29.322Z,2.50
2023-03-25T15:40:55.870Z,2.70
2023-03-25T15:43:26.180Z,2.47
2023-03-25T15:46:11.297Z,2.30
2023-03-25T15:48:50.934Z,2.60
2023-03-25T15:51:12.772Z,1.93
2023-03-25T15:53:59.869Z,3.20
2023-03-25T15:56:13.702Z,2.40
2023-03-25T15:58:25.952Z,1.57
2023-03-25T16:00:39.175Z,2.67
2023-03-25T16:02:53.098Z,2.30
2023-03-25T16:05:02.293Z,2.23
2023-03-25T16:07:15.533Z,2.70
2023-03-25T16:09:28.769Z,2.33
2023-03-25T16:11:44.702Z,2.43
2023-03-25T16:14:04.551Z,2.23
2023-03-25T16:16:16.233Z,2.77
2023-03-25T16:18:26.281Z,2.27
2023-03-25T16:20:37.796Z,1.90
2023-03-25T16:22:50.668Z,2.13
2023-03-25T16:25:02.998Z,2.27
2023-03-25T16:27:14.610Z,2.13
2023-03-25T16:29:24.803Z,1.90
2023-03-25T16:31:41.246Z,2.30
2023-03-25T16:33:49.636Z,1.97
2023-03-25T16:36:01.217Z,1.77
2023-03-25T16:38:14.657Z,1.80
2023-03-25T16:40:28.576Z,2.00
2023-03-25T16:42:38.617Z,1.83
2023-03-25T16:44:48.277Z,1.53
2023-03-25T16:46:56.800Z,1.80
2023-03-25T16:49:06.356Z,1.90
2023-03-25T16:51:17.244Z,1.70
2023-03-25T16:53:27.552Z,1.93
2023-03-25T16:55:47.304Z,1.40
2023-03-25T16:57:59.453Z,1.73
2023-03-25T17:00:18.483Z,1.73
2023-03-25T17:02:29.933Z,2.37
2023-03-25T17:04:42.228Z,1.83
2023-03-25T17:06:54.585Z,1.30
2023-03-25T17:09:05.186Z,1.30
2023-03-25T17:11:14.828Z,1.60
2023-03-25T17:13:28.983Z,1.60
2023-03-25T17:15:38.211Z,1.87
2023-03-25T17:17:51.689Z,1.60
2023-03-25T17:20:05.930Z,2.17
2023-03-25T17:22:19.493Z,1.80
2023-03-25T17:24:28.743Z,1.47
2023-03-25T17:26:56.138Z,1.30
2023-03-25T17:29:10.498Z,1.07
2023-03-25T17:31:22.023Z,1.40
2023-03-25T17:33:35.991Z,1.53
2023-03-25T17:35:47.038Z,1.30
2023-03-25T17:37:56.389Z,1.47
2023-03-25T17:40:12.716Z,1.37
2023-03-25T17:42:26.125Z,1.40
2023-03-25T17:44:38.246Z,1.23
2023-03-25T17:46:47.378Z,1.50
2023-03-25T17:48:58.102Z,1.20
2023-03-25T17:51:07.689Z,1.30
2023-03-25T17:53:16.111Z,1.50
2023-03-25T17:55:24.668Z,1.10
2023-03-25T17:57:33.581Z,0.90
2023-03-25T17:59:44.526Z,0.93
2023-03-25T18:01:53.487Z,1.57
2023-03-25T18:04:02.386Z,0.93
2023-03-25T18:06:13.509Z,1.33
2023-03-25T18:08:23.749Z,1.10
2023-03-25T18:10:33.758Z,1.27
2023-03-25T18:12:42.650Z,0.90
2023-03-25T18:14:52.628Z,1.20
2023-03-25T18:17:01.358Z,1.10
2023-03-25T18:19:14.811Z,0.97
2023-03-25T18:21:23.768Z,0.80
2023-03-25T18:23:32.855Z,1.17
2023-03-25T18:25:41.909Z,0.90
2023-03-25T18:27:53.951Z,1.00
2023-03-25T18:30:07.976Z,0.90
2023-03-25T18:32:16.725Z,1.10
2023-03-25T18:34:26.237Z,1.10
2023-03-25T18:36:34.911Z,0.70
2023-03-25T18:38:44.483Z,1.00
2023-03-25T18:40:54.744Z,0.87
2023-03-25T18:43:04.844Z,0.87
2023-03-25T18:45:15.580Z,0.90
2023-03-25T18:47:24.516Z,0.80
2023-03-25T18:49:32.935Z,1.00
2023-03-25T18:51:41.379Z,0.97
2023-03-25T18:53:50.133Z,1.17
2023-03-25T18:56:01.076Z,1.10
2023-03-25T18:58:17.508Z,0.90
2023-03-25T19:00:30.373Z,0.80
2023-03-25T19:02:39.283Z,1.53
2023-03-25T19:04:59.988Z,0.90
2023-03-25T19:07:12.366Z,1.53
2023-03-25T19:09:22.853Z,0.97
2023-03-25T19:11:34.099Z,1.07
2023-03-25T19:13:42.874Z,1.27
2023-03-25T19:15:53.522Z,1.70
2023-03-25T19:18:02.797Z,1.00
2023-03-25T19:20:17.783Z,1.30
2023-03-25T19:22:26.377Z,1.10
2023-03-25T19:24:35.035Z,1.10
2023-03-25T19:26:43.909Z,1.63
2023-03-25T19:28:52.561Z,1.00
2023-03-25T19:31:03.303Z,0.97
2023-03-25T19:33:12.702Z,1.10
2023-03-25T19:35:24.035Z,1.00
2023-03-25T19:37:35.395Z,1.17
2023-03-25T19:39:43.993Z,0.80
2023-03-25T19:41:53.021Z,1.07
2023-03-25T19:44:01.955Z,1.00
2023-03-25T19:46:12.593Z,1.07
2023-03-25T19:48:21.529Z,0.87
2023-03-25T19:50:33.027Z,0.70
2023-03-25T19:52:43.479Z,0.67
2023-03-25T19:54:52.750Z,0.80
2023-03-25T19:57:01.868Z,0.70
2023-03-25T19:59:11.272Z,0.80
2023-03-25T20:01:22.701Z,0.70
2023-03-25T20:03:33.062Z,0.90
2023-03-25T20:05:42.642Z,0.97
2023-03-25T20:07:51.655Z,0.80
2023-03-25T20:10:09.638Z,0.80
2023-03-25T20:12:27.446Z,0.90
2023-03-25T20:14:36.223Z,0.97
2023-03-25T20:16:46.920Z,0.87
2023-03-25T20:19:12.314Z,0.97
2023-03-25T20:21:22.668Z,1.00
2023-03-25T20:23:31.588Z,0.80
2023-03-25T20:25:40.589Z,0.80
2023-03-25T20:27:49.412Z,0.93
2023-03-25T20:29:58.570Z,0.80
2023-03-25T20:32:08.968Z,0.87
2023-03-25T20:34:17.985Z,0.67
2023-03-25T20:36:26.777Z,1.20
2023-03-25T20:38:39.689Z,0.80
2023-03-25T20:40:54.396Z,0.83
2023-03-25T20:43:03.156Z,0.80
2023-03-25T20:45:14.039Z,0.73
2023-03-25T20:47:24.343Z,0.87
2023-03-25T20:49:32.979Z,0.80
2023-03-25T20:51:41.957Z,0.80
2023-03-25T20:53:51.221Z,0.80
2023-03-25T20:56:01.921Z,1.00
2023-03-25T20:58:11.467Z,0.80
2023-03-25T21:00:20.211Z,0.73
2023-03-25T21:02:30.563Z,0.90
2023-03-25T21:04:39.732Z,0.70
2023-03-25T21:06:49.217Z,0.93
2023-03-25T21:09:01.023Z,0.90
2023-03-25T21:11:14.835Z,1.00
2023-03-25T21:13:23.741Z,0.83
2023-03-25T21:15:32.505Z,0.83
2023-03-25T21:17:43.001Z,0.53
2023-03-25T21:19:52.079Z,1.00
2023-03-25T21:22:00.876Z,0.70
2023-03-25T21:24:10.124Z,0.87
2023-03-25T21:26:18.907Z,0.80
2023-03-25T21:28:27.879Z,0.97
2023-03-25T21:30:36.960Z,0.90
2023-03-25T21:32:47.862Z,0.90
2023-03-25T21:34:56.750Z,1.20
2023-03-25T21:37:05.634Z,0.90
2023-03-25T21:39:14.730Z,0.97
2023-03-25T21:41:23.243Z,0.93
2023-03-25T21:43:32.872Z,1.27
2023-03-25T21:45:41.897Z,1.00
2023-03-25T21:47:55.626Z,0.80
2023-03-25T21:50:06.392Z,0.90
2023-03-25T21:52:14.859Z,1.00
2023-03-25T21:54:23.629Z,0.80
2023-03-25T21:56:34.976Z,0.60
2023-03-25T21:58:43.616Z,0.73
2023-03-25T22:00:57.870Z,0.80
2023-03-25T22:03:12.064Z,0.70
2023-03-25T22:05:20.966Z,0.97
2023-03-25T22:07:29.633Z,0.90
2023-03-25T22:09:38.294Z,0.87
2023-03-25T22:11:47.788Z,0.90
2023-03-25T22:13:56.926Z,0.90
2023-03-25T22:16:07.256Z,0.90
2023-03-25T22:18:17.463Z,0.93
2023-03-25T22:20:26.231Z,0.80
2023-03-25T22:22:34.958Z,1.00
2023-03-25T22:24:45.493Z,1.00
2023-03-25T22:26:54.139Z,1.00
2023-03-25T22:29:06.113Z,0.93
2023-03-25T22:31:16.462Z,1.00
2023-03-25T22:33:26.903Z,0.87
2023-03-25T22:35:35.565Z,1.00
2023-03-25T22:37:46.225Z,0.93
2023-03-25T22:39:54.673Z,0.80
2023-03-25T22:42:03.565Z,0.77
2023-03-25T22:44:13.401Z,0.70
2023-03-25T22:46:22.638Z,0.90
2023-03-25T22:48:33.488Z,0.90
2023-03-25T22:50:42.190Z,0.80
2023-03-25T22:52:50.638Z,0.80
2023-03-25T22:54:59.121Z,1.03
2023-03-25T22:57:07.835Z,0.93
2023-03-25T22:59:16.805Z,0.70
2023-03-25T23:01:27.156Z,1.00
2023-03-25T23:03:37.679Z,0.87
2023-03-25T23:05:57.824Z,0.90
2023-03-25T23:08:07.122Z,0.80
2023-03-25T23:10:16.113Z,1.10
2023-03-25T23:12:27.278Z,1.30
2023-03-25T23:14:36.208Z,0.90
2023-03-25T23:16:44.676Z,0.73
2023-03-25T23:18:56.702Z,1.00
2023-03-25T23:21:06.250Z,1.00
2023-03-25T23:23:14.983Z,1.00
2023-03-25T23:25:23.392Z,1.00
2023-03-25T23:27:34.021Z,1.00
2023-03-25T23:29:42.855Z,1.10
2023-03-25T23:31:51.550Z,1.07
2023-03-25T23:34:04.508Z,0.80
2023-03-25T23:36:13.947Z,1.00
2023-03-25T23:38:23.948Z,0.87
2023-03-25T23:40:32.554Z,0.93
2023-03-25T23:42:41.509Z,1.07
2023-03-25T23:44:50.028Z,0.90
2023-03-25T23:46:58.709Z,1.03
2023-03-25T23:49:10.880Z,1.13
2023-03-25T23:51:20.685Z,0.90
2023-03-25T23:53:29.949Z,0.97
2023-03-25T23:55:38.860Z,0.83
2023-03-25T23:57:47.205Z,1.10
2023-03-25T23:59:55.586Z,1.00
